createdAt,value
2022-10-10T00:00:03.349Z,0
2022-10-10T00:05:02.947Z,0
2022-10-10T00:10:02.615Z,0
2022-10-10T00:15:02.428Z,0
2022-10-10T00:20:03.417Z,0
2022-10-10T00:25:03.171Z,0
2022-10-10T00:30:09.422Z,0
2022-10-10T00:35:02.976Z,0
2022-10-10T00:40:02.627Z,0
2022-10-10T00:45:03.269Z,0
2022-10-10T00:50:02.874Z,0
2022-10-10T00:55:03.441Z,0
2022-10-10T01:00:03.271Z,0
2022-10-10T01:05:02.878Z,0
2022-10-10T01:10:02.583Z,0
2022-10-10T01:15:03.085Z,0
2022-10-10T01:20:02.662Z,0
2022-10-10T01:25:03.365Z,0
2022-10-10T01:30:03.070Z,0
2022-10-10T01:35:02.653Z,0
2022-10-10T01:40:03.441Z,0
2022-10-10T01:45:03.379Z,0
2022-10-10T01:50:02.550Z,0
2022-10-10T01:55:04.258Z,0
2022-10-10T02:00:02.860Z,0
2022-10-10T02:05:02.476Z,0
2022-10-10T02:10:03.251Z,0
2022-10-10T02:15:02.913Z,0
2022-10-10T02:20:02.678Z,0
2022-10-10T02:25:03.318Z,0
2022-10-10T02:30:02.726Z,0
2022-10-10T02:35:02.618Z,0
2022-10-10T02:40:03.263Z,0
2022-10-10T02:45:02.923Z,0
2022-10-10T02:50:02.523Z,0
2022-10-10T02:55:04.638Z,0
2022-10-10T03:00:02.949Z,0
2022-10-10T03:05:05.864Z,0
2022-10-10T03:10:02.760Z,0
2022-10-10T03:15:12.011Z,0
2022-10-10T03:20:03.039Z,0
2022-10-10T03:25:02.618Z,0
2022-10-10T03:30:02.582Z,0
2022-10-10T03:35:03.168Z,0
2022-10-10T03:40:02.871Z,0
2022-10-10T03:45:02.506Z,0
2022-10-10T03:50:03.189Z,0
2022-10-10T03:55:04.101Z,0
2022-10-10T04:00:03.466Z,0
2022-10-10T04:05:03.171Z,0
2022-10-10T04:10:02.809Z,0
2022-10-10T04:15:03.476Z,0
2022-10-10T04:20:03.187Z,0
2022-10-10T04:25:02.834Z,0
2022-10-10T04:30:03.434Z,0
2022-10-10T04:35:03.005Z,0
2022-10-10T04:40:02.688Z,0
2022-10-10T04:45:03.397Z,0
2022-10-10T04:50:02.907Z,0.91
2022-10-10T04:55:04.003Z,2.38
2022-10-10T05:00:03.484Z,5.89
2022-10-10T05:05:03.124Z,6.67
2022-10-10T05:10:02.796Z,16.67
2022-10-10T05:15:03.482Z,38.33
2022-10-10T05:20:03.237Z,75
2022-10-10T05:25:02.885Z,126.67
2022-10-10T05:30:02.618Z,171.67
2022-10-10T05:35:03.189Z,220
2022-10-10T05:40:02.891Z,283.33
2022-10-10T05:45:02.592Z,356.67
2022-10-10T05:50:03.221Z,460
2022-10-10T05:55:04.248Z,605
2022-10-10T06:00:02.645Z,736.67
2022-10-10T06:05:03.262Z,855
2022-10-10T06:10:02.947Z,1066.67
2022-10-10T06:15:02.671Z,1281.67
2022-10-10T06:20:03.368Z,1253.33
2022-10-10T06:25:02.994Z,1356.67
2022-10-10T06:30:02.591Z,1796.67
2022-10-10T06:35:03.180Z,1493.33
2022-10-10T06:40:02.909Z,1213.33
2022-10-10T06:45:02.576Z,1956.67
2022-10-10T06:50:03.202Z,2015
2022-10-10T06:55:03.650Z,1811.67
2022-10-10T07:00:03.573Z,1775
2022-10-10T07:05:03.115Z,2221.67
2022-10-10T07:10:02.746Z,2853.33
2022-10-10T07:15:03.477Z,3460
2022-10-10T07:20:03.142Z,4481.67
2022-10-10T07:25:03.143Z,5143.33
2022-10-10T07:30:02.652Z,4526.67
2022-10-10T07:35:03.231Z,5583.33
2022-10-10T07:40:02.965Z,4583.33
2022-10-10T07:45:02.890Z,7671.67
2022-10-10T07:50:02.713Z,6726.67
2022-10-10T07:55:04.550Z,4775
2022-10-10T08:00:02.877Z,5673.33
2022-10-10T08:05:02.542Z,4343.33
2022-10-10T08:10:03.366Z,3818.33
2022-10-10T08:15:03.362Z,3631.67
2022-10-10T08:20:02.931Z,3621.67
2022-10-10T08:25:03.463Z,3485
2022-10-10T08:30:03.378Z,3360
2022-10-10T08:35:02.952Z,3260
2022-10-10T08:40:02.893Z,3293.33
2022-10-10T08:45:03.457Z,3483.33
2022-10-10T08:50:03.134Z,3761.67
2022-10-10T08:55:03.816Z,3485
2022-10-10T09:00:03.623Z,3608.33
2022-10-10T09:05:03.149Z,3798.33
2022-10-10T09:10:02.821Z,8966.67
2022-10-10T09:15:03.249Z,13378.33
2022-10-10T09:20:03.277Z,13046.67
2022-10-10T09:25:03.001Z,28060
2022-10-10T09:30:02.908Z,27373.33
2022-10-10T09:35:03.431Z,8225
2022-10-10T09:40:03.278Z,13580
2022-10-10T09:45:02.961Z,13546.67
2022-10-10T09:55:04.390Z,8320
2022-10-10T10:00:05.119Z,31566.67
2022-10-10T10:05:02.526Z,32546.67
2022-10-10T10:10:03.259Z,30306.67
2022-10-10T10:15:03.149Z,11325
2022-10-10T10:20:10.779Z,13425
2022-10-10T10:25:02.602Z,32133.33
2022-10-10T10:30:03.407Z,34306.67
2022-10-10T10:35:03.231Z,33650
2022-10-10T10:40:02.698Z,31200
2022-10-10T10:45:03.447Z,13326.67
2022-10-10T10:50:03.041Z,27623.33
2022-10-10T10:55:03.872Z,13240
2022-10-10T11:01:22.836Z,12861.67
2022-10-10T11:05:40.667Z,13310
2022-10-10T11:10:03.052Z,13438.33
2022-10-10T11:15:02.770Z,12931.67
2022-10-10T11:20:02.495Z,13245
2022-10-10T11:25:03.124Z,13628.33
2022-10-10T11:30:02.792Z,13373.33
2022-10-10T11:35:03.595Z,27473.33
2022-10-10T11:40:03.087Z,30536.67
2022-10-10T11:45:02.820Z,29683.33
2022-10-10T11:50:02.593Z,28480
2022-10-10T11:55:04.328Z,27763.33
2022-10-10T12:00:02.972Z,13453.33
2022-10-10T12:05:02.609Z,13493.33
2022-10-10T12:10:03.316Z,27593.33
2022-10-10T12:15:03.198Z,13281.67
2022-10-10T12:20:02.928Z,12016.67
2022-10-10T12:25:02.688Z,11241.67
2022-10-10T12:30:03.606Z,8018.33
2022-10-10T12:35:03.335Z,12286.67
2022-10-10T12:40:02.899Z,11493.33
2022-10-10T12:45:03.620Z,6420
2022-10-10T12:50:03.216Z,2848.33
2022-10-10T12:55:07.336Z,6955
2022-10-10T13:00:03.121Z,12226.67
2022-10-10T13:05:03.123Z,10276.67
2022-10-10T13:10:02.798Z,11085
2022-10-10T13:15:03.513Z,8746.67
2022-10-10T13:20:03.252Z,7911.67
2022-10-10T13:25:03.110Z,7281.67
2022-10-10T13:30:02.849Z,7413.33
2022-10-10T13:35:02.895Z,7045
2022-10-10T13:40:02.552Z,6518.33
2022-10-10T13:45:03.310Z,6210
2022-10-10T13:50:02.860Z,6108.33
2022-10-10T13:55:04.095Z,6148.33
2022-10-10T14:00:03.439Z,6005
2022-10-10T14:05:03.093Z,5586.67
2022-10-10T14:10:02.781Z,5355
2022-10-10T14:15:03.486Z,4940
2022-10-10T14:20:03.318Z,4661.67
2022-10-10T14:25:02.859Z,4580
2022-10-10T14:30:02.593Z,4360
2022-10-10T14:35:03.281Z,4000
2022-10-10T14:40:03.435Z,3736.67
2022-10-10T14:45:02.665Z,3473.33
2022-10-10T14:50:03.713Z,3195
2022-10-10T14:55:03.851Z,3206.67
2022-10-10T15:00:03.669Z,3010
2022-10-10T15:05:03.312Z,2706.67
2022-10-10T15:10:36.026Z,2395
2022-10-10T15:15:02.625Z,2096.67
2022-10-10T15:20:03.409Z,1561.67
2022-10-10T15:25:02.899Z,1518.33
2022-10-10T15:30:02.862Z,1380
2022-10-10T15:35:03.447Z,1200
2022-10-10T15:40:03.106Z,1083.33
2022-10-10T15:45:02.865Z,890
2022-10-10T15:50:03.581Z,760
2022-10-10T15:55:04.027Z,633.33
2022-10-10T16:00:02.894Z,500
2022-10-10T16:05:03.510Z,406.67
2022-10-10T16:10:03.184Z,341.67
2022-10-10T16:15:07.458Z,253.33
2022-10-10T16:20:03.604Z,185
2022-10-10T16:25:23.812Z,130
2022-10-10T16:30:03.433Z,88.33
2022-10-10T16:35:03.181Z,55
2022-10-10T16:40:02.728Z,31.67
2022-10-10T16:45:03.377Z,15
2022-10-10T16:50:03.155Z,5
2022-10-10T16:55:03.838Z,5.09
2022-10-10T17:00:03.417Z,1.92
2022-10-10T17:05:03.032Z,0.57
2022-10-10T17:10:02.682Z,0.11
2022-10-10T17:15:03.429Z,0
2022-10-10T17:20:03.055Z,0
2022-10-10T17:25:02.695Z,0
2022-10-10T17:30:02.590Z,0
2022-10-10T17:35:03.212Z,0
2022-10-10T17:40:02.731Z,0
2022-10-10T17:45:02.985Z,0
2022-10-10T17:50:02.828Z,0
2022-10-10T17:55:03.634Z,0
2022-10-10T18:00:03.282Z,0
2022-10-10T18:05:02.904Z,0
2022-10-10T18:10:02.543Z,0
2022-10-10T18:15:04.125Z,0
2022-10-10T18:20:03.090Z,0
2022-10-10T18:25:02.533Z,0
2022-10-10T18:30:03.217Z,0
2022-10-10T18:35:02.813Z,0
2022-10-10T18:40:02.761Z,0
2022-10-10T18:45:03.166Z,0
2022-10-10T18:50:02.882Z,0
2022-10-10T18:55:03.777Z,0
2022-10-10T19:00:04.470Z,0
2022-10-10T19:05:03.186Z,0
2022-10-10T19:10:02.841Z,0
2022-10-10T19:15:02.691Z,0
2022-10-10T19:20:03.409Z,0
2022-10-10T19:25:03.007Z,0
2022-10-10T19:30:02.781Z,0
2022-10-10T19:35:03.425Z,0
2022-10-10T19:40:03.075Z,0
2022-10-10T19:45:02.771Z,0
2022-10-10T19:50:03.397Z,0
2022-10-10T19:55:04.364Z,0
2022-10-10T20:00:02.732Z,0
2022-10-10T20:05:02.911Z,0
2022-10-10T20:10:02.808Z,0
2022-10-10T20:15:02.600Z,0
2022-10-10T20:20:03.219Z,0
2022-10-10T20:25:02.888Z,0
2022-10-10T20:30:03.562Z,0
2022-10-10T20:35:03.105Z,0
2022-10-10T20:40:02.704Z,0
2022-10-10T20:45:03.366Z,0
2022-10-10T20:50:02.973Z,0
2022-10-10T20:55:03.673Z,0
2022-10-10T21:00:03.481Z,0
2022-10-10T21:05:02.467Z,0
2022-10-10T21:10:03.101Z,0
2022-10-10T21:15:02.777Z,0
2022-10-10T21:20:02.559Z,0
2022-10-10T21:25:03.129Z,0
2022-10-10T21:30:02.812Z,0
2022-10-10T21:35:03.296Z,0
2022-10-10T21:40:02.967Z,0
2022-10-10T21:45:02.700Z,0
2022-10-10T21:50:03.184Z,0
2022-10-10T21:55:03.892Z,0
2022-10-10T22:00:03.474Z,0
2022-10-10T22:05:03.083Z,0
2022-10-10T22:10:02.820Z,0
2022-10-10T22:15:03.547Z,0
2022-10-10T22:20:03.349Z,0
2022-10-10T22:25:02.758Z,0
2022-10-10T22:30:03.516Z,0
2022-10-10T22:35:03.104Z,0
2022-10-10T22:40:02.732Z,0
2022-10-10T22:45:03.395Z,0
2022-10-10T22:50:03.169Z,0
2022-10-10T22:55:03.869Z,0
2022-10-10T23:00:03.452Z,0
2022-10-10T23:05:03.100Z,0
2022-10-10T23:10:02.730Z,0
2022-10-10T23:15:03.465Z,0
2022-10-10T23:20:03.148Z,0
2022-10-10T23:25:02.781Z,0
2022-10-10T23:30:03.474Z,0
2022-10-10T23:35:03.179Z,0
2022-10-10T23:40:02.694Z,0
2022-10-10T23:45:03.363Z,0
2022-10-10T23:50:02.930Z,0
2022-10-10T23:55:03.544Z,0
